Time;durP1;ratioP1;P1;durP2;ratioP2;P2;SDS_P1;SDS_P2;PMS_P1;PMS_P2;Temp;Humidity;BMP_temperature;BMP_pressure;BME280_temperature;BME280_humidity;BME280_pressure;Samples;Min_cycle;Max_cycle;Signal;HPM_P1;HPM_P2
2022/07/27 00:02:14;;;;;;;2.95;2.53;;;;;;;21.39;61.42;100075.88;10615262;28;20046;-95
2022/07/27 00:07:17;;;;;;;3.15;2.80;;;;;;;21.33;62.58;100080.94;10613062;28;20044;-92
2022/07/27 00:12:19;;;;;;;3.33;3.03;;;;;;;21.29;61.92;100079.25;10601017;28;20059;-85
2022/07/27 00:17:22;;;;;;;5.50;2.97;;;;;;;21.25;62.42;100079.19;10599453;28;20405;-89
2022/07/27 00:22:24;;;;;;;3.33;2.80;;;;;;;21.22;62.74;100077.09;10584981;28;20050;-91
2022/07/27 00:27:27;;;;;;;4.00;3.20;;;;;;;21.24;62.72;100074.78;10606237;28;20031;-90
2022/07/27 00:32:29;;;;;;;4.03;2.80;;;;;;;21.25;63.04;100076.41;10593790;28;20040;-91
2022/07/27 00:37:31;;;;;;;4.32;3.10;;;;;;;21.22;62.98;100073.50;10600200;28;20036;-91
2022/07/27 00:42:33;;;;;;;4.07;2.95;;;;;;;21.21;62.63;100081.06;10583043;28;20047;-90
2022/07/27 00:47:36;;;;;;;4.20;3.08;;;;;;;21.18;63.11;100081.00;10553261;28;20401;-84
2022/07/27 00:52:39;;;;;;;4.05;3.20;;;;;;;21.21;62.61;100080.25;10610543;28;20039;-87
2022/07/27 00:57:41;;;;;;;5.03;3.28;;;;;;;21.16;63.10;100080.53;10587653;28;20066;-85
2022/07/27 01:02:43;;;;;;;5.30;2.97;;;;;;;21.15;63.47;100088.09;10588816;28;20035;-87
2022/07/27 01:07:47;;;;;;;4.90;2.42;;;;;;;21.18;63.31;100084.59;10610948;28;20034;-88
2022/07/27 01:12:50;;;;;;;6.32;3.17;;;;;;;21.21;63.07;100089.44;10603182;28;20424;-89
2022/07/27 01:17:52;;;;;;;2.65;2.45;;;;;;;21.22;62.64;100087.47;10607457;28;20074;-91
2022/07/27 01:22:55;;;;;;;6.10;3.05;;;;;;;21.24;62.89;100091.53;10585004;28;20043;-94
2022/07/27 01:27:57;;;;;;;4.45;2.75;;;;;;;21.21;62.83;100080.25;10592944;28;20040;-88
2022/07/27 01:33:01;;;;;;;3.25;2.83;;;;;;;21.18;63.68;100076.22;10577460;28;20398;-94
2022/07/27 01:38:03;;;;;;;4.72;2.90;;;;;;;21.11;63.61;100073.28;10579296;28;20489;-86
2022/07/27 01:43:06;;;;;;;4.80;2.90;;;;;;;21.14;63.49;100080.91;10603239;28;20039;-87
2022/07/27 01:48:08;;;;;;;3.80;2.72;;;;;;;21.14;63.34;100094.84;10601951;28;20125;-92
2022/07/27 01:53:11;;;;;;;4.68;2.92;;;;;;;21.13;63.92;100087.66;10589225;28;20050;-90
2022/07/27 01:58:13;;;;;;;4.47;3.03;;;;;;;21.10;63.40;100088.41;10608641;28;20058;-82
2022/07/27 02:03:15;;;;;;;4.13;2.67;;;;;;;21.13;63.78;100081.28;10606336;28;20036;-92
2022/07/27 02:08:18;;;;;;;3.70;2.47;;;;;;;21.19;63.90;100080.63;10573226;28;20524;-88
2022/07/27 02:13:20;;;;;;;6.18;2.65;;;;;;;21.25;63.64;100068.03;10563141;28;20055;-84
2022/07/27 02:18:22;;;;;;;2.97;2.67;;;;;;;21.36;64.10;100071.84;10603119;28;20051;-82
2022/07/27 02:23:25;;;;;;;3.08;2.40;;;;;;;21.45;63.93;100081.97;10590694;28;20059;-81
2022/07/27 02:28:27;;;;;;;2.90;2.30;;;;;;;21.54;63.51;100069.41;10596732;28;20043;-83
2022/07/27 02:33:29;;;;;;;2.95;2.63;;;;;;;21.62;63.08;100068.38;10610099;28;20048;-81
2022/07/27 02:38:31;;;;;;;2.63;2.42;;;;;;;21.75;63.24;100062.63;10598062;28;20524;-83
2022/07/27 02:43:33;;;;;;;3.13;2.70;;;;;;;21.92;62.79;100059.34;10590730;28;20443;-76
2022/07/27 02:48:36;;;;;;;3.97;2.30;;;;;;;21.97;62.80;100059.84;10595037;28;20036;-79
2022/07/27 02:53:38;;;;;;;4.05;2.58;;;;;;;22.12;62.37;100057.34;10591336;28;20524;-79
2022/07/27 02:58:40;;;;;;;2.97;2.60;;;;;;;22.21;62.26;100049.47;10568531;28;20066;-80
2022/07/27 03:03:42;;;;;;;3.92;2.38;;;;;;;22.16;62.06;100049.81;10586073;28;20413;-80
2022/07/27 03:08:45;;;;;;;3.95;2.70;;;;;;;22.16;62.44;100044.22;10597232;28;20063;-79
2022/07/27 03:13:47;;;;;;;3.33;2.40;;;;;;;22.08;62.75;100048.09;10569539;28;20048;-80
2022/07/27 03:18:49;;;;;;;4.22;2.50;;;;;;;22.08;62.88;100045.28;10576564;28;20040;-80
2022/07/27 03:23:52;;;;;;;3.90;2.40;;;;;;;22.04;62.76;100038.78;10598568;28;20039;-79
2022/07/27 03:28:54;;;;;;;2.70;2.50;;;;;;;22.03;62.28;100039.97;10572034;28;20475;-79
2022/07/27 03:33:56;;;;;;;4.35;2.38;;;;;;;21.98;63.31;100039.09;10568709;28;20491;-79
2022/07/27 03:38:59;;;;;;;3.40;2.70;;;;;;;21.95;63.11;100039.84;10569746;28;20063;-79
2022/07/27 03:44:01;;;;;;;3.85;2.47;;;;;;;21.93;63.45;100042.22;10584095;28;20048;-79
2022/07/27 03:49:03;;;;;;;3.22;2.75;;;;;;;21.93;62.83;100047.81;10576847;28;20424;-79
2022/07/27 03:54:05;;;;;;;3.85;2.70;;;;;;;21.88;63.04;100042.53;10573862;28;20032;-79
2022/07/27 03:59:33;;;;;;;3.83;2.95;;;;;;;21.94;63.02;100054.19;10547612;28;20075;-79
2022/07/27 04:04:35;;;;;;;5.13;3.05;;;;;;;22.14;63.78;100052.16;10577530;28;20047;-79
2022/07/27 04:09:38;;;;;;;5.03;2.92;;;;;;;22.28;63.29;100055.22;10566119;28;20036;-78
2022/07/27 04:14:40;;;;;;;8.75;3.45;;;;;;;22.23;63.41;100053.53;10571851;28;20040;-79
2022/07/27 04:19:42;;;;;;;5.90;3.35;;;;;;;22.18;63.34;100050.25;10588602;28;20039;-79
2022/07/27 04:24:45;;;;;;;4.15;3.05;;;;;;;22.20;63.44;100065.44;10570153;28;20037;-79
2022/07/27 04:29:47;;;;;;;3.45;2.85;;;;;;;22.20;63.66;100076.63;10593677;28;20042;-79
2022/07/27 04:34:49;;;;;;;5.28;3.20;;;;;;;22.26;63.38;100077.16;10586955;28;20036;-78
2022/07/27 04:39:56;;;;;;;4.57;3.17;;;;;;;22.23;63.51;100066.72;10585859;28;20040;-79
2022/07/27 04:44:58;;;;;;;3.30;3.00;;;;;;;22.26;64.11;100071.56;10569364;28;20038;-79
2022/07/27 04:50:01;;;;;;;3.83;3.10;;;;;;;22.25;63.99;100079.13;10587718;28;20036;-79
2022/07/27 04:55:03;;;;;;;3.35;2.97;;;;;;;22.41;62.63;100073.41;10586616;28;20039;-79
2022/07/27 05:00:06;;;;;;;4.20;2.92;;;;;;;22.47;63.07;100069.09;10583494;28;20673;-79
2022/07/27 05:05:08;;;;;;;6.15;3.00;;;;;;;22.54;62.53;100085.97;10583640;28;20047;-79
2022/07/27 05:10:11;;;;;;;3.92;3.08;;;;;;;22.52;63.21;100079.94;10559010;28;20048;-78
2022/07/27 05:15:13;;;;;;;4.03;2.42;;;;;;;22.55;62.13;100073.59;10611446;28;20468;-78
2022/07/27 05:20:16;;;;;;;2.92;2.63;;;;;;;22.75;62.69;100081.91;10573141;28;20063;-78
2022/07/27 05:25:20;;;;;;;6.18;2.90;;;;;;;22.85;62.52;100070.91;10611891;28;20047;-78
2022/07/27 05:30:23;;;;;;;4.28;3.10;;;;;;;22.76;62.36;100072.34;10575755;28;20055;-78
2022/07/27 05:35:26;;;;;;;3.38;2.92;;;;;;;22.56;63.03;100071.63;10578480;28;20043;-78
2022/07/27 05:40:28;;;;;;;5.03;2.53;;;;;;;22.55;62.15;100070.00;10610288;28;20489;-78
2022/07/27 05:45:31;;;;;;;5.30;3.28;;;;;;;22.58;62.74;100065.66;10594361;28;20447;-78
2022/07/27 05:50:33;;;;;;;6.15;3.13;;;;;;;22.63;62.68;100068.13;10608967;28;20046;-79
2022/07/27 05:55:35;;;;;;;3.70;2.90;;;;;;;22.69;62.75;100070.22;10609117;28;20032;-79
2022/07/27 06:00:37;;;;;;;5.25;3.45;;;;;;;22.58;64.68;100072.06;10592990;28;20055;-79
2022/07/27 06:05:40;;;;;;;6.50;3.63;;;;;;;22.56;64.39;100069.66;10564450;28;20043;-79
2022/07/27 06:10:42;;;;;;;3.78;3.33;;;;;;;22.65;64.75;100068.56;10583405;28;20044;-78
2022/07/27 06:15:45;;;;;;;6.60;3.63;;;;;;;22.62;65.63;100072.94;10589697;28;20058;-79
2022/07/27 06:20:47;;;;;;;6.72;3.55;;;;;;;22.50;66.29;100087.09;10604280;28;20046;-79
2022/07/27 06:25:49;;;;;;;4.53;4.00;;;;;;;22.48;66.08;100087.47;10611558;28;20032;-79
2022/07/27 06:30:54;;;;;;;4.82;3.15;;;;;;;22.44;65.60;100094.22;10588448;28;20046;-79
2022/07/27 06:35:58;;;;;;;3.80;3.13;;;;;;;22.26;67.08;100094.72;10600556;28;20050;-78
2022/07/27 06:41:00;;;;;;;5.28;3.40;;;;;;;22.09;67.38;100094.41;10618509;28;20140;-78
2022/07/27 06:46:03;;;;;;;5.18;3.65;;;;;;;21.93;68.76;100095.28;10574522;28;20044;-78
2022/07/27 06:51:06;;;;;;;3.97;3.40;;;;;;;21.80;69.59;100096.63;10598396;28;20039;-78
2022/07/27 06:56:08;;;;;;;4.13;3.40;;;;;;;21.77;69.99;100108.56;10609542;28;20038;-78
2022/07/27 07:01:10;;;;;;;3.90;2.83;;;;;;;21.66;70.35;100116.72;10582667;28;20047;-78
2022/07/27 07:06:12;;;;;;;8.10;3.60;;;;;;;21.51;70.54;100125.97;10618037;28;20043;-78
2022/07/27 07:11:15;;;;;;;4.75;3.53;;;;;;;21.40;70.98;100135.31;10589249;28;20051;-78
2022/07/27 07:16:17;;;;;;;5.40;3.67;;;;;;;21.31;71.89;100133.53;10610197;28;20054;-78
2022/07/27 07:21:19;;;;;;;8.43;3.88;;;;;;;21.23;72.72;100133.72;10618087;28;20043;-78
2022/07/27 07:26:21;;;;;;;6.63;3.47;;;;;;;21.11;73.22;100148.59;10620126;28;20039;-78
2022/07/27 07:31:23;;;;;;;7.97;3.72;;;;;;;20.98;74.63;100149.88;10615934;28;20043;-78
2022/07/27 07:36:26;;;;;;;5.68;3.28;;;;;;;20.92;74.81;100148.56;10585737;28;20051;-78
2022/07/27 07:41:28;;;;;;;6.80;3.45;;;;;;;20.89;75.50;100150.09;10597158;28;20050;-78
2022/07/27 07:46:30;;;;;;;12.75;4.70;;;;;;;20.86;75.49;100161.16;10617749;28;20039;-78
2022/07/27 07:51:33;;;;;;;23.02;4.45;;;;;;;20.86;75.70;100166.75;10607206;28;20043;-78
2022/07/27 07:56:35;;;;;;;5.68;3.55;;;;;;;20.84;76.08;100180.25;10617229;28;20047;-78
2022/07/27 08:01:37;;;;;;;6.90;3.38;;;;;;;20.83;75.66;100184.22;10614489;28;20036;-78
2022/07/27 08:06:39;;;;;;;5.65;3.38;;;;;;;20.75;76.21;100188.78;10561592;28;20051;-77
2022/07/27 08:11:42;;;;;;;8.00;3.83;;;;;;;20.55;75.40;100195.44;10609662;28;20051;-77
2022/07/27 08:16:44;;;;;;;4.53;3.30;;;;;;;20.23;76.74;100202.91;10578710;28;20040;-78
2022/07/27 08:21:46;;;;;;;5.88;3.63;;;;;;;19.88;78.62;100211.91;10583392;28;20036;-78
2022/07/27 08:26:48;;;;;;;5.72;3.25;;;;;;;19.79;80.15;100222.41;10599996;28;20040;-78
2022/07/27 08:31:51;;;;;;;4.40;3.05;;;;;;;19.70;80.73;100218.94;10596344;28;20051;-78
2022/07/27 08:36:53;;;;;;;5.10;3.30;;;;;;;19.68;81.93;100218.47;10593750;28;20036;-77
2022/07/27 08:41:59;;;;;;;5.47;3.10;;;;;;;19.71;82.25;100217.78;10603116;28;20054;-77
2022/07/27 08:47:01;;;;;;;4.03;3.28;;;;;;;19.71;82.17;100224.16;10585100;28;20042;-78
2022/07/27 08:52:04;;;;;;;5.03;3.33;;;;;;;19.74;81.99;100223.44;10593354;28;20039;-78
2022/07/27 08:57:09;;;;;;;4.20;2.58;;;;;;;19.76;81.50;100234.22;10581747;28;20036;-77
2022/07/27 09:02:13;;;;;;;4.90;2.85;;;;;;;19.81;80.48;100242.34;10592717;28;20051;-78
2022/07/27 09:07:30;;;;;;;4.38;2.67;;;;;;;19.81;80.18;100245.13;10595217;28;20043;-78
2022/07/27 09:12:33;;;;;;;3.95;3.08;;;;;;;19.85;79.86;100246.03;10608042;28;20054;-77
2022/07/27 09:17:38;;;;;;;4.38;2.88;;;;;;;19.87;78.91;100246.50;10586753;28;20040;-77
2022/07/27 09:22:43;;;;;;;2.67;2.30;;;;;;;19.92;78.39;100251.78;10602583;28;20432;-78
2022/07/27 09:27:47;;;;;;;2.42;2.22;;;;;;;19.86;77.69;100264.34;10613545;28;20043;-78
2022/07/27 09:33:00;;;;;;;2.67;2.40;;;;;;;19.85;76.37;100268.31;10587684;28;20044;-75
2022/07/27 09:38:22;;;;;;;3.33;2.28;;;;;;;19.83;76.52;100265.88;10594141;28;20035;-74
2022/07/27 09:43:24;;;;;;;4.05;2.08;;;;;;;19.88;75.95;100268.41;10611063;28;20046;-75
2022/07/27 09:48:26;;;;;;;3.17;2.42;;;;;;;19.94;75.43;100277.31;10570456;28;20073;-74
2022/07/27 09:53:33;;;;;;;2.28;2.05;;;;;;;;;;10535897;28;20133;-75
2022/07/27 09:58:43;;;;;;;3.83;2.35;;;;;;;20.06;74.87;100266.13;10586351;28;20043;-75
2022/07/27 10:03:45;;;;;;;3.10;2.40;;;;;;;20.33;75.26;100266.50;10612563;28;20047;-75
2022/07/27 10:08:49;;;;;;;3.22;2.40;;;;;;;20.52;74.83;100274.22;10593784;28;20054;-76
2022/07/27 10:13:53;;;;;;;4.70;2.38;;;;;;;20.66;73.55;100281.00;10600834;28;20036;-74
2022/07/27 10:19:04;;;;;;;5.65;2.35;;;;;;;20.80;73.28;100276.94;10597931;28;20537;-74
2022/07/27 10:24:08;;;;;;;3.08;1.83;;;;;;;20.95;72.31;100267.75;10591063;28;20044;-75
2022/07/27 10:29:16;;;;;;;3.13;1.98;;;;;;;21.07;71.69;100278.84;10566384;28;20044;-75
2022/07/27 10:34:36;;;;;;;2.90;1.77;;;;;;;21.14;70.75;100276.22;10588467;28;20410;-74
2022/07/27 10:39:44;;;;;;;1.92;1.80;;;;;;;21.19;70.84;100275.97;10594506;28;20524;-75
2022/07/27 10:44:53;;;;;;;1.83;1.73;;;;;;;21.23;70.29;100279.63;10587078;28;20093;-75
2022/07/27 10:50:28;;;;;;;1.67;1.48;;;;;;;21.27;69.50;100286.16;10599893;28;20052;-76
2022/07/27 10:55:31;;;;;;;1.88;1.42;;;;;;;21.26;69.19;100276.16;10538493;28;20055;-77
2022/07/27 11:00:48;;;;;;;1.85;1.60;;;;;;;21.27;69.17;100286.16;10597553;28;20416;-77
2022/07/27 11:06:01;;;;;;;3.28;2.10;;;;;;;21.28;69.63;100279.38;10579607;28;20051;-75
2022/07/27 11:11:06;;;;;;;2.45;2.20;;;;;;;21.22;70.50;100291.97;10599395;28;20058;-76
2022/07/27 11:16:10;;;;;;;2.83;2.30;;;;;;;21.23;70.76;100298.38;10597608;28;20045;-77
2022/07/27 11:21:19;;;;;;;6.53;2.88;;;;;;;21.32;69.58;100305.41;10598109;28;20051;-76
2022/07/27 11:26:24;;;;;;;4.13;2.15;;;;;;;21.52;69.38;100313.81;10617002;28;20066;-76
2022/07/27 11:31:26;;;;;;;2.58;2.05;;;;;;;21.74;69.62;100307.59;10581485;28;20035;-77
2022/07/27 11:36:36;;;;;;;3.40;2.05;;;;;;;21.97;68.76;100311.28;10616658;28;20040;-77
2022/07/27 11:41:39;;;;;;;2.22;2.03;;;;;;;22.11;67.83;100310.00;10599134;28;20050;-76
2022/07/27 11:46:43;;;;;;;3.97;2.15;;;;;;;22.13;66.33;100318.84;10598119;28;20390;-76
2022/07/27 11:51:47;;;;;;;3.40;2.10;;;;;;;22.01;65.48;100316.94;10614855;28;20390;-77
2022/07/27 11:56:52;;;;;;;2.33;1.95;;;;;;;21.92;65.59;100322.75;10597250;28;20058;-75
2022/07/27 12:01:58;;;;;;;3.85;1.90;;;;;;;21.83;65.65;100321.34;10604976;27;20303;-76
2022/07/27 12:07:20;;;;;;;2.95;1.75;;;;;;;21.75;65.95;100325.97;10574014;28;20397;-76
2022/07/27 12:12:28;;;;;;;1.75;1.65;;;;;;;21.59;65.22;100330.78;10577498;28;20047;-77
2022/07/27 12:17:33;;;;;;;;;;;;;;;21.48;66.13;100333.28;10595903;28;20048;-75
2022/07/27 12:22:43;;;;;;;1.90;1.50;;;;;;;21.43;65.47;100335.56;10576042;28;19920;-75
2022/07/27 12:28:08;;;;;;;2.97;1.85;;;;;;;21.47;65.99;100342.84;10586528;28;20051;-75
2022/07/27 12:33:28;;;;;;;3.20;2.10;;;;;;;21.49;66.17;100339.69;10558662;28;20052;-75
2022/07/27 12:38:42;;;;;;;3.30;2.03;;;;;;;21.45;66.41;100338.78;10581175;28;20043;-74
2022/07/27 12:43:44;;;;;;;2.35;1.77;;;;;;;21.33;67.21;100346.09;10553404;28;20256;-74
2022/07/27 12:48:46;;;;;;;2.30;1.95;;;;;;;21.19;69.58;100350.50;10596540;28;20047;-75
2022/07/27 12:53:48;;;;;;;4.28;2.38;;;;;;;20.99;70.26;100338.41;10613706;28;20078;-75
2022/07/27 12:58:58;;;;;;;3.25;2.30;;;;;;;20.93;70.61;100329.50;10597882;28;20137;-75
2022/07/27 13:04:00;;;;;;;2.25;2.05;;;;;;;20.85;71.43;100338.84;10591793;28;20043;-74
2022/07/27 13:09:03;;;;;;;4.53;2.45;;;;;;;20.84;72.41;100336.44;10594719;28;20093;-75
2022/07/27 13:14:06;;;;;;;6.80;2.35;;;;;;;20.78;72.73;100324.69;10593681;28;20056;-76
2022/07/27 13:19:08;;;;;;;2.28;1.92;;;;;;;20.78;72.20;100321.91;10612861;28;20045;-76
2022/07/27 13:24:10;;;;;;;6.22;1.83;;;;;;;20.86;71.82;100314.56;10594537;28;20051;-76
2022/07/27 13:29:13;;;;;;;3.13;2.08;;;;;;;20.90;71.63;100307.09;10570661;28;20071;-75
2022/07/27 13:34:15;;;;;;;3.63;1.58;;;;;;;20.93;71.44;100317.53;10599611;28;20048;-75
2022/07/27 13:39:17;;;;;;;1.83;1.63;;;;;;;21.10;70.36;100311.59;10608578;28;20032;-74
2022/07/27 13:44:20;;;;;;;1.60;1.50;;;;;;;21.23;68.61;100315.91;10608764;28;20067;-76
2022/07/27 13:49:22;;;;;;;1.60;1.30;;;;;;;21.26;66.90;100312.44;10599904;28;20035;-77
2022/07/27 13:54:26;;;;;;;1.75;0.98;;;;;;;21.30;65.75;100307.75;10578579;28;20039;-79
2022/07/27 13:59:28;;;;;;;1.25;1.10;;;;;;;21.33;64.76;100317.38;10586879;28;20042;-81
2022/07/27 14:04:34;;;;;;;2.20;1.38;;;;;;;21.41;64.59;100310.00;10598744;28;20036;-81
2022/07/27 14:14:57;;;;;;;2.25;1.15;;;;;;;21.52;65.26;100299.88;10606446;28;20515;-78
2022/07/27 14:20:01;;;;;;;1.73;1.63;;;;;;;21.53;66.04;100316.28;10609331;28;20071;-72
2022/07/27 14:25:03;;;;;;;2.13;1.60;;;;;;;21.51;65.27;100315.00;10586741;28;20059;-77
2022/07/27 14:30:08;;;;;;;2.08;1.58;;;;;;;21.55;65.43;100313.94;10584784;28;20440;-77
2022/07/27 14:35:11;;;;;;;2.35;1.40;;;;;;;21.50;65.41;100313.38;10573690;28;20031;-77
2022/07/27 14:40:14;;;;;;;1.80;1.60;;;;;;;21.56;64.09;100314.75;10585234;28;20032;-78
2022/07/27 14:45:16;;;;;;;1.52;1.10;;;;;;;21.50;65.03;100313.38;10609157;28;20121;-80
2022/07/27 14:50:19;;;;;;;1.73;1.40;;;;;;;21.46;64.04;100312.50;10600826;28;20497;-77
2022/07/27 14:55:22;;;;;;;1.35;1.25;;;;;;;21.38;64.26;100293.97;10606815;28;20043;-78
2022/07/27 15:00:24;;;;;;;3.97;1.48;;;;;;;21.31;64.48;100312.16;10608193;28;20055;-78
2022/07/27 15:05:27;;;;;;;3.05;1.63;;;;;;;21.31;63.60;100323.31;10586336;28;20517;-76
2022/07/27 15:10:29;;;;;;;3.35;1.63;;;;;;;21.23;64.38;100323.47;10566963;28;20054;-78
2022/07/27 15:15:33;;;;;;;1.60;1.35;;;;;;;21.17;64.53;100311.75;10586784;28;20039;-78
2022/07/27 15:20:35;;;;;;;1.52;1.30;;;;;;;21.10;64.41;100311.59;10552018;28;20051;-78
2022/07/27 15:25:37;;;;;;;2.63;1.40;;;;;;;21.15;64.19;100327.25;10571703;28;20047;-78
2022/07/27 15:30:39;;;;;;;2.97;1.50;;;;;;;21.17;63.73;100336.06;10583474;28;20044;-77
2022/07/27 15:35:42;;;;;;;2.08;1.30;;;;;;;21.13;63.78;100319.25;10597318;28;20039;-77
2022/07/27 15:40:44;;;;;;;2.63;1.52;;;;;;;21.12;63.70;100334.38;10614545;28;20031;-77
2022/07/27 15:45:49;;;;;;;1.40;1.30;;;;;;;21.07;64.29;100332.66;10596623;28;20066;-76
2022/07/27 15:50:52;;;;;;;1.63;1.40;;;;;;;21.03;63.77;100319.78;10615329;28;20039;-77
2022/07/27 15:55:56;;;;;;;1.55;1.33;;;;;;;21.00;63.79;100323.28;10614838;28;20044;-78
2022/07/27 16:00:58;;;;;;;1.45;1.13;;;;;;;20.94;63.84;100327.50;10594650;28;20048;-76
2022/07/27 16:06:01;;;;;;;3.58;1.08;;;;;;;20.85;64.11;100338.03;10589827;28;20035;-79
2022/07/27 16:11:03;;;;;;;1.95;0.88;;;;;;;20.78;64.63;100317.16;10592901;28;20058;-78
2022/07/27 16:16:20;;;;;;;3.53;1.02;;;;;;;20.68;63.54;100316.88;10551276;28;20051;-76
2022/07/27 16:21:24;;;;;;;1.20;1.08;;;;;;;20.67;63.15;100326.41;10603540;28;20032;-76
2022/07/27 16:26:26;;;;;;;1.05;0.95;;;;;;;20.68;63.01;100316.88;10532016;28;20430;-78
2022/07/27 16:31:29;;;;;;;1.35;1.10;;;;;;;20.72;62.75;100332.53;10568409;28;20527;-74
2022/07/27 16:36:31;;;;;;;2.30;1.48;;;;;;;20.91;61.89;100315.09;10601914;28;20055;-75
2022/07/27 16:41:33;;;;;;;1.63;1.30;;;;;;;21.16;60.75;100318.50;10602553;28;20047;-78
2022/07/27 16:46:37;;;;;;;1.00;1.00;;;;;;;21.28;61.13;100326.84;10601843;28;20039;-76
2022/07/27 16:51:40;;;;;;;1.50;1.40;;;;;;;21.41;61.14;100330.34;10563865;28;20400;-76
2022/07/27 16:56:44;;;;;;;1.38;1.23;;;;;;;21.42;60.02;100329.16;10591711;27;20036;-76
2022/07/27 17:01:46;;;;;;;2.85;1.20;;;;;;;21.49;59.28;100328.53;10598614;28;20050;-77
2022/07/27 17:06:48;;;;;;;1.50;1.00;;;;;;;21.52;59.60;100334.22;10541004;28;20433;-78
2022/07/27 17:11:52;;;;;;;1.88;1.23;;;;;;;21.66;58.95;100334.53;10595139;28;20548;-77
2022/07/27 17:16:54;;;;;;;1.23;1.13;;;;;;;21.70;59.17;100331.84;10574129;28;20054;-77
2022/07/27 17:21:57;;;;;;;2.63;1.08;;;;;;;21.67;59.49;100338.94;10591623;28;20043;-75
2022/07/27 17:26:59;;;;;;;1.38;1.25;;;;;;;21.54;59.63;100343.03;10577501;28;20036;-76
2022/07/27 17:32:01;;;;;;;2.78;1.27;;;;;;;21.49;60.21;100342.47;10579187;28;20039;-77
2022/07/27 17:37:03;;;;;;;1.10;1.00;;;;;;;21.37;60.31;100346.19;10562125;28;20405;-77
2022/07/27 17:42:06;;;;;;;1.70;1.38;;;;;;;21.35;60.37;100352.16;10581432;28;20402;-77
2022/07/27 17:47:08;;;;;;;1.45;1.33;;;;;;;21.25;60.54;100347.09;10562236;28;20036;-78
2022/07/27 17:52:11;;;;;;;1.80;1.30;;;;;;;21.23;61.31;100340.22;10550273;28;20044;-78
2022/07/27 17:57:15;;;;;;;1.50;1.35;;;;;;;21.09;61.51;100340.66;10556981;28;20044;-76
2022/07/27 18:02:17;;;;;;;2.22;1.45;;;;;;;21.11;60.79;100346.69;10580555;28;20048;-76
2022/07/27 18:07:20;;;;;;;2.70;1.58;;;;;;;21.10;61.06;100345.06;10590368;28;20040;-77
2022/07/27 18:12:23;;;;;;;2.25;1.17;;;;;;;21.03;61.79;100361.63;10570923;28;20048;-77
2022/07/27 18:17:26;;;;;;;1.73;1.23;;;;;;;20.91;61.71;100359.72;10617600;28;20055;-77
2022/07/27 18:22:28;;;;;;;2.20;1.35;;;;;;;20.92;61.20;100366.13;10614375;28;20040;-77
2022/07/27 18:27:31;;;;;;;1.45;1.27;;;;;;;20.88;62.03;100374.41;10612787;28;20032;-76
2022/07/27 18:32:33;;;;;;;1.98;1.50;;;;;;;20.84;62.42;100381.06;10618363;28;20425;-75
2022/07/27 18:37:35;;;;;;;2.97;1.17;;;;;;;20.82;62.44;100370.22;10589792;28;20041;-75
2022/07/27 18:42:38;;;;;;;2.38;1.35;;;;;;;20.72;62.41;100377.16;10580610;28;20036;-78
2022/07/27 18:47:40;;;;;;;1.77;1.55;;;;;;;20.75;62.69;100383.97;10600933;28;20093;-79
2022/07/27 18:52:42;;;;;;;3.72;1.50;;;;;;;20.64;62.56;100382.84;10596869;28;20048;-79
2022/07/27 18:57:45;;;;;;;1.92;1.50;;;;;;;20.60;62.54;100396.69;10615505;27;20123;-80
2022/07/27 19:02:50;;;;;;;3.33;1.50;;;;;;;20.59;63.10;100414.59;10590281;28;20028;-78
2022/07/27 19:07:55;;;;;;;2.72;1.60;;;;;;;20.56;63.47;100397.78;10582517;28;20047;-79
2022/07/27 19:12:57;;;;;;;2.22;1.33;;;;;;;20.58;63.04;100412.16;10585940;28;20050;-80
2022/07/27 19:18:00;;;;;;;1.95;1.70;;;;;;;20.51;63.45;100412.78;10596985;28;20044;-81
2022/07/27 19:23:04;;;;;;;1.73;1.48;;;;;;;20.45;63.99;100414.19;10582905;28;20036;-81
2022/07/27 19:28:06;;;;;;;3.42;2.13;;;;;;;20.42;64.06;100414.88;10608516;28;20040;-79
2022/07/27 19:33:08;;;;;;;2.67;1.50;;;;;;;20.41;63.85;100418.84;10592313;28;20056;-79
2022/07/27 19:38:11;;;;;;;2.17;1.65;;;;;;;20.25;63.75;100415.94;10591600;28;20036;-78
2022/07/27 19:43:14;;;;;;;4.45;1.83;;;;;;;20.18;64.13;100419.34;10578678;28;20070;-79
2022/07/27 19:48:16;;;;;;;5.03;1.45;;;;;;;20.12;65.02;100425.47;10597033;28;20055;-81
2022/07/27 19:53:19;;;;;;;4.55;1.77;;;;;;;20.21;64.70;100419.78;10573725;28;20043;-81
2022/07/27 19:58:23;;;;;;;3.92;1.88;;;;;;;20.20;64.55;100434.88;10608141;28;20048;-83
2022/07/27 20:03:26;;;;;;;3.38;2.10;;;;;;;20.18;65.01;100438.03;10578636;28;20039;-79
2022/07/27 20:08:31;;;;;;;2.63;1.50;;;;;;;20.14;65.45;100439.91;10559895;28;20038;-84
2022/07/27 20:13:34;;;;;;;4.60;1.85;;;;;;;20.06;65.69;100440.81;10568701;28;20064;-78
2022/07/27 20:18:36;;;;;;;2.45;2.22;;;;;;;19.96;65.53;100444.91;10561193;28;20036;-78
2022/07/27 20:23:41;;;;;;;3.80;1.55;;;;;;;19.89;66.49;100444.66;10547702;28;20059;-78
2022/07/27 20:28:44;;;;;;;1.75;1.63;;;;;;;19.82;66.98;100444.44;10552105;28;20059;-78
2022/07/27 20:33:47;;;;;;;3.17;1.63;;;;;;;19.85;66.76;100449.31;10568915;28;20032;-78
2022/07/27 20:38:49;;;;;;;1.83;1.58;;;;;;;19.81;67.42;100451.97;10551764;28;20405;-78
2022/07/27 20:43:53;;;;;;;3.08;2.28;;;;;;;19.83;67.49;100454.41;10565307;28;20043;-80
2022/07/27 20:48:55;;;;;;;4.60;1.70;;;;;;;19.85;67.54;100452.91;10557297;28;20452;-82
2022/07/27 20:53:57;;;;;;;3.03;1.70;;;;;;;19.87;67.28;100456.16;10556349;28;20043;-78
2022/07/27 20:59:00;;;;;;;3.92;1.77;;;;;;;19.86;67.97;100456.50;10559794;28;20417;-81
2022/07/27 21:04:03;;;;;;;2.75;1.75;;;;;;;19.80;67.88;100460.69;10559545;28;20040;-85
2022/07/27 21:09:06;;;;;;;3.15;1.90;;;;;;;19.82;68.46;100461.97;10560054;28;20397;-85
2022/07/27 21:14:08;;;;;;;2.00;1.60;;;;;;;19.69;68.93;100465.06;10552911;28;20048;-85
2022/07/27 21:19:10;;;;;;;2.00;1.50;;;;;;;19.60;69.20;100462.38;10562580;28;20040;-85
2022/07/27 21:24:15;;;;;;;3.88;1.92;;;;;;;19.50;69.27;100465.59;10554463;28;20489;-85
2022/07/27 21:29:19;;;;;;;2.53;1.77;;;;;;;19.46;69.40;100467.47;10561129;28;20046;-85
2022/07/27 21:34:21;;;;;;;3.55;1.90;;;;;;;19.42;70.08;100467.31;10541658;28;20059;-85
2022/07/27 21:39:24;;;;;;;5.47;1.90;;;;;;;19.50;70.11;100463.63;10567098;28;20040;-84
2022/07/27 21:44:26;;;;;;;2.33;1.63;;;;;;;19.64;69.73;100465.31;10563842;28;20035;-82
2022/07/27 21:49:28;;;;;;;4.47;1.95;;;;;;;19.69;69.88;100470.66;10550895;28;20032;-87
2022/07/27 21:54:30;;;;;;;2.58;1.73;;;;;;;19.68;69.79;100469.84;10564973;28;20047;-85
2022/07/27 21:59:33;;;;;;;4.65;2.10;;;;;;;19.68;70.26;100458.69;10551196;28;20047;-87
2022/07/27 22:04:35;;;;;;;2.30;1.73;;;;;;;19.70;70.58;100472.25;10547040;28;20063;-85
2022/07/27 22:09:38;;;;;;;3.00;1.73;;;;;;;19.69;70.22;100470.66;10555525;28;20044;-88
2022/07/27 22:14:40;;;;;;;2.85;1.85;;;;;;;19.71;71.06;100473.88;10587695;28;20055;-88
2022/07/27 22:19:42;;;;;;;2.55;1.50;;;;;;;19.64;70.86;100474.47;10570566;28;20050;-84
2022/07/27 22:24:44;;;;;;;5.57;1.90;;;;;;;19.65;71.33;100464.97;10581326;28;20062;-86
2022/07/27 22:29:47;;;;;;;3.00;1.90;;;;;;;19.69;70.81;100477.03;10555190;28;20482;-88
2022/07/27 22:34:49;;;;;;;2.05;1.85;;;;;;;19.69;71.25;100476.22;10599857;28;20404;-89
2022/07/27 22:39:51;;;;;;;2.13;1.73;;;;;;;19.66;71.30;100477.72;10589423;28;20515;-90
2022/07/27 22:44:54;;;;;;;3.13;1.85;;;;;;;19.60;72.03;100472.72;10579146;28;20413;-86
2022/07/27 22:49:56;;;;;;;3.15;1.52;;;;;;;19.54;71.86;100480.47;10579410;28;20036;-90
2022/07/27 22:54:59;;;;;;;4.53;2.08;;;;;;;19.50;72.10;100483.13;10559755;28;20050;-88
2022/07/27 23:00:04;;;;;;;2.80;1.70;;;;;;;19.46;72.11;100482.19;10581983;28;20028;-86
2022/07/27 23:05:07;;;;;;;2.80;1.80;;;;;;;19.48;72.27;100490.19;10587577;28;20046;-90
2022/07/27 23:10:44;;;;;;;1.80;1.65;;;;;;;19.47;72.62;100486.59;10610987;28;20421;-87
2022/07/27 23:15:31;;;;;;;4.82;1.95;;;;;;;19.38;72.73;100494.22;10587055;28;20039;-92
2022/07/27 23:20:33;;;;;;;4.43;1.85;;;;;;;19.35;72.85;100497.69;10587530;28;20027;-94